sensor_id;sensor_type;location;lat;lon;timestamp;P1;durP1;ratioP1;P2;durP2;ratioP2
4375;SDS011;2202;50.866;12.750;2022-10-15T00:00:38;8.73;;;6.43;;
4375;SDS011;2202;50.866;12.750;2022-10-15T00:03:05;11.70;;;6.03;;
4375;SDS011;2202;50.866;12.750;2022-10-15T00:05:34;7.27;;;5.23;;
4375;SDS011;2202;50.866;12.750;2022-10-15T00:08:03;10.33;;;5.97;;
4375;SDS011;2202;50.866;12.750;2022-10-15T00:10:31;7.70;;;6.03;;
4375;SDS011;2202;50.866;12.750;2022-10-15T00:12:58;7.67;;;5.20;;
4375;SDS011;2202;50.866;12.750;2022-10-15T00:15:25;5.50;;;4.20;;
4375;SDS011;2202;50.866;12.750;2022-10-15T00:17:52;5.73;;;4.50;;
4375;SDS011;2202;50.866;12.750;2022-10-15T00:20:19;5.90;;;4.50;;
4375;SDS011;2202;50.866;12.750;2022-10-15T00:22:46;6.37;;;5.20;;
4375;SDS011;2202;50.866;12.750;2022-10-15T00:25:14;7.23;;;4.60;;
4375;SDS011;2202;50.866;12.750;2022-10-15T00:27:41;6.90;;;4.73;;
4375;SDS011;2202;50.866;12.750;2022-10-15T00:30:09;5.73;;;4.80;;
4375;SDS011;2202;50.866;12.750;2022-10-15T00:32:36;7.80;;;5.30;;
4375;SDS011;2202;50.866;12.750;2022-10-15T00:35:03;6.80;;;5.00;;
4375;SDS011;2202;50.866;12.750;2022-10-15T00:37:30;5.90;;;4.90;;
4375;SDS011;2202;50.866;12.750;2022-10-15T00:39:57;6.97;;;5.17;;
4375;SDS011;2202;50.866;12.750;2022-10-15T00:42:25;6.73;;;4.73;;
4375;SDS011;2202;50.866;12.750;2022-10-15T00:44:53;6.13;;;4.23;;
4375;SDS011;2202;50.866;12.750;2022-10-15T00:47:26;6.57;;;4.37;;
4375;SDS011;2202;50.866;12.750;2022-10-15T00:49:57;7.37;;;4.30;;
4375;SDS011;2202;50.866;12.750;2022-10-15T00:52:29;6.13;;;4.47;;
4375;SDS011;2202;50.866;12.750;2022-10-15T00:55:03;6.13;;;4.20;;
4375;SDS011;2202;50.866;12.750;2022-10-15T00:57:33;5.17;;;3.90;;
4375;SDS011;2202;50.866;12.750;2022-10-15T01:00:01;6.73;;;4.83;;
4375;SDS011;2202;50.866;12.750;2022-10-15T01:02:33;6.17;;;4.20;;
4375;SDS011;2202;50.866;12.750;2022-10-15T01:05:00;6.77;;;4.83;;
4375;SDS011;2202;50.866;12.750;2022-10-15T01:07:27;4.90;;;3.50;;
4375;SDS011;2202;50.866;12.750;2022-10-15T01:09:54;5.87;;;3.50;;
4375;SDS011;2202;50.866;12.750;2022-10-15T01:12:24;4.67;;;3.60;;
4375;SDS011;2202;50.866;12.750;2022-10-15T01:14:58;5.23;;;3.33;;
4375;SDS011;2202;50.866;12.750;2022-10-15T01:17:34;5.90;;;3.47;;
4375;SDS011;2202;50.866;12.750;2022-10-15T01:20:19;5.73;;;4.20;;
4375;SDS011;2202;50.866;12.750;2022-10-15T01:23:20;5.60;;;3.97;;
4375;SDS011;2202;50.866;12.750;2022-10-15T01:26:15;5.70;;;3.90;;
4375;SDS011;2202;50.866;12.750;2022-10-15T01:29:11;5.73;;;4.13;;
4375;SDS011;2202;50.866;12.750;2022-10-15T01:31:49;5.70;;;3.90;;
4375;SDS011;2202;50.866;12.750;2022-10-15T01:34:25;6.33;;;4.53;;
4375;SDS011;2202;50.866;12.750;2022-10-15T01:37:03;5.77;;;4.20;;
4375;SDS011;2202;50.866;12.750;2022-10-15T01:39:34;6.30;;;4.37;;
4375;SDS011;2202;50.866;12.750;2022-10-15T01:42:06;6.37;;;5.03;;
4375;SDS011;2202;50.866;12.750;2022-10-15T01:44:41;5.40;;;4.10;;
4375;SDS011;2202;50.866;12.750;2022-10-15T01:47:15;8.87;;;4.90;;
4375;SDS011;2202;50.866;12.750;2022-10-15T01:49:48;6.17;;;4.77;;
4375;SDS011;2202;50.866;12.750;2022-10-15T01:52:18;5.43;;;4.43;;
4375;SDS011;2202;50.866;12.750;2022-10-15T01:54:49;8.57;;;5.33;;
4375;SDS011;2202;50.866;12.750;2022-10-15T01:57:17;7.37;;;4.27;;
4375;SDS011;2202;50.866;12.750;2022-10-15T01:59:45;6.63;;;5.10;;
4375;SDS011;2202;50.866;12.750;2022-10-15T02:02:14;7.70;;;5.60;;
4375;SDS011;2202;50.866;12.750;2022-10-15T02:04:41;6.63;;;4.70;;
4375;SDS011;2202;50.866;12.750;2022-10-15T02:07:09;6.70;;;4.03;;
4375;SDS011;2202;50.866;12.750;2022-10-15T02:09:42;7.40;;;4.40;;
4375;SDS011;2202;50.866;12.750;2022-10-15T02:12:19;7.83;;;4.83;;
4375;SDS011;2202;50.866;12.750;2022-10-15T02:15:04;6.30;;;4.70;;
4375;SDS011;2202;50.866;12.750;2022-10-15T02:17:37;5.67;;;4.03;;
4375;SDS011;2202;50.866;12.750;2022-10-15T02:20:10;5.17;;;3.33;;
4375;SDS011;2202;50.866;12.750;2022-10-15T02:22:40;6.00;;;4.07;;
4375;SDS011;2202;50.866;12.750;2022-10-15T02:25:14;7.30;;;4.53;;
4375;SDS011;2202;50.866;12.750;2022-10-15T02:27:44;6.93;;;4.70;;
4375;SDS011;2202;50.866;12.750;2022-10-15T02:30:13;5.50;;;4.33;;
4375;SDS011;2202;50.866;12.750;2022-10-15T02:32:44;6.50;;;4.30;;
4375;SDS011;2202;50.866;12.750;2022-10-15T02:35:14;7.60;;;5.53;;
4375;SDS011;2202;50.866;12.750;2022-10-15T02:37:42;5.50;;;4.40;;
4375;SDS011;2202;50.866;12.750;2022-10-15T02:40:11;8.07;;;5.87;;
4375;SDS011;2202;50.866;12.750;2022-10-15T02:42:38;7.33;;;5.00;;
4375;SDS011;2202;50.866;12.750;2022-10-15T02:45:05;8.90;;;5.43;;
4375;SDS011;2202;50.866;12.750;2022-10-15T02:47:33;8.50;;;6.23;;
4375;SDS011;2202;50.866;12.750;2022-10-15T02:50:01;6.17;;;5.13;;
4375;SDS011;2202;50.866;12.750;2022-10-15T02:52:29;7.90;;;5.40;;
4375;SDS011;2202;50.866;12.750;2022-10-15T02:54:55;7.37;;;5.23;;
4375;SDS011;2202;50.866;12.750;2022-10-15T02:57:22;7.90;;;4.33;;
4375;SDS011;2202;50.866;12.750;2022-10-15T02:59:49;7.10;;;4.70;;
4375;SDS011;2202;50.866;12.750;2022-10-15T03:02:16;6.93;;;4.30;;
4375;SDS011;2202;50.866;12.750;2022-10-15T03:04:43;11.03;;;4.57;;
4375;SDS011;2202;50.866;12.750;2022-10-15T03:07:11;7.17;;;4.47;;
4375;SDS011;2202;50.866;12.750;2022-10-15T03:09:38;12.10;;;5.57;;
4375;SDS011;2202;50.866;12.750;2022-10-15T03:12:05;6.50;;;4.67;;
4375;SDS011;2202;50.866;12.750;2022-10-15T03:14:32;6.53;;;4.70;;
4375;SDS011;2202;50.866;12.750;2022-10-15T03:16:59;6.40;;;4.03;;
4375;SDS011;2202;50.866;12.750;2022-10-15T03:19:26;5.90;;;4.17;;
4375;SDS011;2202;50.866;12.750;2022-10-15T03:21:52;6.63;;;4.07;;
4375;SDS011;2202;50.866;12.750;2022-10-15T03:24:21;6.43;;;5.00;;
4375;SDS011;2202;50.866;12.750;2022-10-15T03:26:47;6.87;;;5.63;;
4375;SDS011;2202;50.866;12.750;2022-10-15T03:29:14;8.97;;;6.43;;
4375;SDS011;2202;50.866;12.750;2022-10-15T03:31:41;12.70;;;6.27;;
4375;SDS011;2202;50.866;12.750;2022-10-15T03:34:08;14.17;;;7.43;;
4375;SDS011;2202;50.866;12.750;2022-10-15T03:36:35;7.47;;;5.30;;
4375;SDS011;2202;50.866;12.750;2022-10-15T03:39:02;6.33;;;4.60;;
4375;SDS011;2202;50.866;12.750;2022-10-15T03:41:31;6.10;;;4.50;;
4375;SDS011;2202;50.866;12.750;2022-10-15T03:43:59;7.40;;;4.70;;
4375;SDS011;2202;50.866;12.750;2022-10-15T03:46:26;6.97;;;4.60;;
4375;SDS011;2202;50.866;12.750;2022-10-15T03:48:53;6.97;;;4.87;;
4375;SDS011;2202;50.866;12.750;2022-10-15T03:51:20;8.10;;;5.00;;
4375;SDS011;2202;50.866;12.750;2022-10-15T03:53:47;7.20;;;5.50;;
4375;SDS011;2202;50.866;12.750;2022-10-15T03:56:14;7.90;;;5.43;;
4375;SDS011;2202;50.866;12.750;2022-10-15T03:58:42;7.50;;;5.17;;
4375;SDS011;2202;50.866;12.750;2022-10-15T04:01:09;6.57;;;4.23;;
4375;SDS011;2202;50.866;12.750;2022-10-15T04:03:38;9.70;;;5.53;;
4375;SDS011;2202;50.866;12.750;2022-10-15T04:06:05;5.13;;;4.00;;
4375;SDS011;2202;50.866;12.750;2022-10-15T04:08:32;6.90;;;5.00;;
4375;SDS011;2202;50.866;12.750;2022-10-15T04:10:59;8.90;;;4.13;;
4375;SDS011;2202;50.866;12.750;2022-10-15T04:13:26;6.30;;;5.30;;
4375;SDS011;2202;50.866;12.750;2022-10-15T04:15:55;6.57;;;5.10;;
4375;SDS011;2202;50.866;12.750;2022-10-15T04:18:22;7.80;;;5.93;;
4375;SDS011;2202;50.866;12.750;2022-10-15T04:20:48;7.20;;;5.50;;
4375;SDS011;2202;50.866;12.750;2022-10-15T04:23:16;7.03;;;5.90;;
4375;SDS011;2202;50.866;12.750;2022-10-15T04:25:43;5.63;;;4.67;;
4375;SDS011;2202;50.866;12.750;2022-10-15T04:28:10;7.53;;;5.90;;
4375;SDS011;2202;50.866;12.750;2022-10-15T04:30:37;6.93;;;4.47;;
4375;SDS011;2202;50.866;12.750;2022-10-15T04:33:05;7.50;;;5.83;;
4375;SDS011;2202;50.866;12.750;2022-10-15T04:35:32;6.70;;;5.13;;
4375;SDS011;2202;50.866;12.750;2022-10-15T04:37:59;5.30;;;3.57;;
4375;SDS011;2202;50.866;12.750;2022-10-15T04:40:26;5.10;;;3.70;;
4375;SDS011;2202;50.866;12.750;2022-10-15T04:42:54;5.07;;;3.30;;
4375;SDS011;2202;50.866;12.750;2022-10-15T04:45:20;4.47;;;3.50;;
4375;SDS011;2202;50.866;12.750;2022-10-15T04:47:47;5.20;;;3.70;;
4375;SDS011;2202;50.866;12.750;2022-10-15T04:50:15;5.43;;;3.87;;
4375;SDS011;2202;50.866;12.750;2022-10-15T04:52:42;6.20;;;4.30;;
4375;SDS011;2202;50.866;12.750;2022-10-15T04:55:09;5.10;;;3.97;;
4375;SDS011;2202;50.866;12.750;2022-10-15T04:57:36;6.40;;;4.93;;
4375;SDS011;2202;50.866;12.750;2022-10-15T05:00:03;6.17;;;3.77;;
4375;SDS011;2202;50.866;12.750;2022-10-15T05:02:31;6.27;;;3.90;;
4375;SDS011;2202;50.866;12.750;2022-10-15T05:04:58;4.70;;;3.00;;
4375;SDS011;2202;50.866;12.750;2022-10-15T05:07:26;4.63;;;3.00;;
4375;SDS011;2202;50.866;12.750;2022-10-15T05:09:53;3.93;;;3.00;;
4375;SDS011;2202;50.866;12.750;2022-10-15T05:12:19;4.23;;;3.20;;
4375;SDS011;2202;50.866;12.750;2022-10-15T05:14:46;3.70;;;2.37;;
4375;SDS011;2202;50.866;12.750;2022-10-15T05:17:13;4.93;;;2.43;;
4375;SDS011;2202;50.866;12.750;2022-10-15T05:19:40;4.87;;;3.23;;
4375;SDS011;2202;50.866;12.750;2022-10-15T05:22:07;3.50;;;2.23;;
4375;SDS011;2202;50.866;12.750;2022-10-15T05:24:35;4.23;;;2.50;;
4375;SDS011;2202;50.866;12.750;2022-10-15T05:27:02;4.00;;;2.40;;
4375;SDS011;2202;50.866;12.750;2022-10-15T05:29:29;3.67;;;2.60;;
4375;SDS011;2202;50.866;12.750;2022-10-15T05:31:55;4.30;;;2.70;;
4375;SDS011;2202;50.866;12.750;2022-10-15T05:34:22;5.10;;;2.93;;
4375;SDS011;2202;50.866;12.750;2022-10-15T05:36:50;5.40;;;3.53;;
4375;SDS011;2202;50.866;12.750;2022-10-15T05:39:17;3.70;;;2.83;;
4375;SDS011;2202;50.866;12.750;2022-10-15T05:41:46;6.30;;;3.30;;
4375;SDS011;2202;50.866;12.750;2022-10-15T05:44:13;5.40;;;3.17;;
4375;SDS011;2202;50.866;12.750;2022-10-15T05:46:40;5.10;;;3.10;;
4375;SDS011;2202;50.866;12.750;2022-10-15T05:49:07;5.33;;;3.37;;
4375;SDS011;2202;50.866;12.750;2022-10-15T05:51:34;6.10;;;2.93;;
4375;SDS011;2202;50.866;12.750;2022-10-15T05:54:00;4.37;;;3.00;;
4375;SDS011;2202;50.866;12.750;2022-10-15T05:56:27;4.90;;;3.20;;
4375;SDS011;2202;50.866;12.750;2022-10-15T05:58:56;7.60;;;3.20;;
4375;SDS011;2202;50.866;12.750;2022-10-15T06:01:23;4.37;;;3.30;;
4375;SDS011;2202;50.866;12.750;2022-10-15T06:03:50;5.90;;;3.40;;
4375;SDS011;2202;50.866;12.750;2022-10-15T06:06:17;4.00;;;2.83;;
4375;SDS011;2202;50.866;12.750;2022-10-15T06:08:46;4.90;;;2.90;;
4375;SDS011;2202;50.866;12.750;2022-10-15T06:11:13;3.10;;;2.07;;
4375;SDS011;2202;50.866;12.750;2022-10-15T06:13:41;6.67;;;2.60;;
4375;SDS011;2202;50.866;12.750;2022-10-15T06:16:10;4.27;;;2.90;;
4375;SDS011;2202;50.866;12.750;2022-10-15T06:18:38;3.57;;;2.40;;
4375;SDS011;2202;50.866;12.750;2022-10-15T06:21:05;3.03;;;1.90;;
4375;SDS011;2202;50.866;12.750;2022-10-15T06:23:32;3.10;;;2.03;;
4375;SDS011;2202;50.866;12.750;2022-10-15T06:26:00;3.60;;;2.03;;
4375;SDS011;2202;50.866;12.750;2022-10-15T06:28:28;4.00;;;2.30;;
4375;SDS011;2202;50.866;12.750;2022-10-15T06:30:56;3.20;;;1.80;;
4375;SDS011;2202;50.866;12.750;2022-10-15T06:33:25;5.50;;;2.60;;
4375;SDS011;2202;50.866;12.750;2022-10-15T06:35:52;3.47;;;2.13;;
4375;SDS011;2202;50.866;12.750;2022-10-15T06:38:19;2.90;;;1.60;;
4375;SDS011;2202;50.866;12.750;2022-10-15T06:40:46;3.73;;;1.80;;
4375;SDS011;2202;50.866;12.750;2022-10-15T06:43:13;2.80;;;1.70;;
4375;SDS011;2202;50.866;12.750;2022-10-15T06:45:40;2.93;;;1.57;;
4375;SDS011;2202;50.866;12.750;2022-10-15T06:48:08;3.00;;;1.60;;
4375;SDS011;2202;50.866;12.750;2022-10-15T06:50:37;3.70;;;1.30;;
4375;SDS011;2202;50.866;12.750;2022-10-15T06:53:04;2.80;;;1.50;;
4375;SDS011;2202;50.866;12.750;2022-10-15T06:55:32;2.90;;;1.57;;
4375;SDS011;2202;50.866;12.750;2022-10-15T06:57:59;2.83;;;1.47;;
4375;SDS011;2202;50.866;12.750;2022-10-15T07:00:26;3.10;;;1.37;;
4375;SDS011;2202;50.866;12.750;2022-10-15T07:02:53;2.67;;;1.30;;
4375;SDS011;2202;50.866;12.750;2022-10-15T07:05:20;3.10;;;1.60;;
4375;SDS011;2202;50.866;12.750;2022-10-15T07:07:51;2.80;;;1.40;;
4375;SDS011;2202;50.866;12.750;2022-10-15T07:10:18;2.70;;;1.30;;
4375;SDS011;2202;50.866;12.750;2022-10-15T07:12:45;3.37;;;1.60;;
4375;SDS011;2202;50.866;12.750;2022-10-15T07:15:12;6.37;;;2.17;;
4375;SDS011;2202;50.866;12.750;2022-10-15T07:17:44;3.63;;;1.37;;
4375;SDS011;2202;50.866;12.750;2022-10-15T07:20:11;9.97;;;1.40;;
4375;SDS011;2202;50.866;12.750;2022-10-15T07:22:38;4.83;;;1.00;;
4375;SDS011;2202;50.866;12.750;2022-10-15T07:25:07;2.93;;;1.23;;
4375;SDS011;2202;50.866;12.750;2022-10-15T07:27:35;5.33;;;1.10;;
4375;SDS011;2202;50.866;12.750;2022-10-15T07:30:02;2.40;;;1.10;;
4375;SDS011;2202;50.866;12.750;2022-10-15T07:32:29;2.20;;;0.80;;
4375;SDS011;2202;50.866;12.750;2022-10-15T07:34:56;3.70;;;2.40;;
4375;SDS011;2202;50.866;12.750;2022-10-15T07:37:23;3.33;;;1.80;;
4375;SDS011;2202;50.866;12.750;2022-10-15T07:39:50;2.57;;;1.30;;
4375;SDS011;2202;50.866;12.750;2022-10-15T07:42:18;3.60;;;1.40;;
4375;SDS011;2202;50.866;12.750;2022-10-15T07:44:45;3.57;;;1.17;;
4375;SDS011;2202;50.866;12.750;2022-10-15T07:47:12;3.20;;;1.50;;
4375;SDS011;2202;50.866;12.750;2022-10-15T07:49:39;4.07;;;1.47;;
4375;SDS011;2202;50.866;12.750;2022-10-15T07:52:06;2.80;;;1.77;;
4375;SDS011;2202;50.866;12.750;2022-10-15T07:54:33;2.93;;;1.70;;
4375;SDS011;2202;50.866;12.750;2022-10-15T07:57:00;3.07;;;2.00;;
4375;SDS011;2202;50.866;12.750;2022-10-15T07:59:28;3.10;;;1.80;;
4375;SDS011;2202;50.866;12.750;2022-10-15T08:01:55;3.10;;;1.80;;
4375;SDS011;2202;50.866;12.750;2022-10-15T08:04:22;2.70;;;1.87;;
4375;SDS011;2202;50.866;12.750;2022-10-15T08:06:49;4.87;;;1.93;;
4375;SDS011;2202;50.866;12.750;2022-10-15T08:09:15;3.30;;;2.40;;
4375;SDS011;2202;50.866;12.750;2022-10-15T08:11:42;2.73;;;1.40;;
4375;SDS011;2202;50.866;12.750;2022-10-15T08:14:09;3.10;;;1.30;;
4375;SDS011;2202;50.866;12.750;2022-10-15T08:16:37;2.90;;;1.43;;
4375;SDS011;2202;50.866;12.750;2022-10-15T08:19:04;6.60;;;1.40;;
4375;SDS011;2202;50.866;12.750;2022-10-15T08:21:31;2.40;;;1.10;;
4375;SDS011;2202;50.866;12.750;2022-10-15T08:23:58;3.17;;;1.23;;
4375;SDS011;2202;50.866;12.750;2022-10-15T08:26:25;2.60;;;1.50;;
4375;SDS011;2202;50.866;12.750;2022-10-15T08:28:51;7.90;;;4.73;;
4375;SDS011;2202;50.866;12.750;2022-10-15T08:31:18;2.63;;;1.60;;
4375;SDS011;2202;50.866;12.750;2022-10-15T08:33:47;2.40;;;1.23;;
4375;SDS011;2202;50.866;12.750;2022-10-15T08:36:13;3.03;;;1.57;;
4375;SDS011;2202;50.866;12.750;2022-10-15T08:38:40;2.60;;;1.60;;
4375;SDS011;2202;50.866;12.750;2022-10-15T08:41:13;2.60;;;1.13;;
4375;SDS011;2202;50.866;12.750;2022-10-15T08:43:47;2.33;;;1.23;;
4375;SDS011;2202;50.866;12.750;2022-10-15T08:46:15;3.30;;;1.60;;
4375;SDS011;2202;50.866;12.750;2022-10-15T08:48:47;3.80;;;1.30;;
4375;SDS011;2202;50.866;12.750;2022-10-15T08:51:18;2.60;;;1.30;;
4375;SDS011;2202;50.866;12.750;2022-10-15T08:53:49;2.60;;;1.70;;
4375;SDS011;2202;50.866;12.750;2022-10-15T08:56:20;4.00;;;1.70;;
4375;SDS011;2202;50.866;12.750;2022-10-15T08:58:51;2.17;;;1.27;;
4375;SDS011;2202;50.866;12.750;2022-10-15T09:01:23;2.50;;;1.37;;
4375;SDS011;2202;50.866;12.750;2022-10-15T09:04:01;5.47;;;1.70;;
4375;SDS011;2202;50.866;12.750;2022-10-15T09:06:38;5.30;;;1.90;;
4375;SDS011;2202;50.866;12.750;2022-10-15T09:09:06;2.73;;;1.87;;
4375;SDS011;2202;50.866;12.750;2022-10-15T09:11:45;2.13;;;1.20;;
4375;SDS011;2202;50.866;12.750;2022-10-15T09:14:21;2.30;;;1.20;;
4375;SDS011;2202;50.866;12.750;2022-10-15T09:16:51;2.20;;;1.30;;
4375;SDS011;2202;50.866;12.750;2022-10-15T09:19:21;2.97;;;1.33;;
4375;SDS011;2202;50.866;12.750;2022-10-15T09:21:50;2.00;;;1.10;;
4375;SDS011;2202;50.866;12.750;2022-10-15T09:24:20;3.40;;;1.70;;
4375;SDS011;2202;50.866;12.750;2022-10-15T09:26:50;3.30;;;1.83;;
4375;SDS011;2202;50.866;12.750;2022-10-15T09:29:24;4.10;;;1.80;;
4375;SDS011;2202;50.866;12.750;2022-10-15T09:31:57;2.20;;;1.20;;
4375;SDS011;2202;50.866;12.750;2022-10-15T09:34:34;2.60;;;1.53;;
4375;SDS011;2202;50.866;12.750;2022-10-15T09:37:10;3.13;;;1.80;;
4375;SDS011;2202;50.866;12.750;2022-10-15T09:39:47;3.13;;;1.70;;
4375;SDS011;2202;50.866;12.750;2022-10-15T09:42:28;3.03;;;2.60;;
4375;SDS011;2202;50.866;12.750;2022-10-15T09:44:58;4.50;;;3.60;;
4375;SDS011;2202;50.866;12.750;2022-10-15T09:47:28;4.10;;;2.97;;
4375;SDS011;2202;50.866;12.750;2022-10-15T09:49:58;3.73;;;2.57;;
4375;SDS011;2202;50.866;12.750;2022-10-15T09:52:29;5.50;;;2.43;;
4375;SDS011;2202;50.866;12.750;2022-10-15T09:55:14;3.30;;;2.30;;
4375;SDS011;2202;50.866;12.750;2022-10-15T09:57:57;4.73;;;2.13;;
4375;SDS011;2202;50.866;12.750;2022-10-15T10:03:21;2.67;;;1.97;;
4375;SDS011;2202;50.866;12.750;2022-10-15T10:05:52;6.43;;;4.33;;
4375;SDS011;2202;50.866;12.750;2022-10-15T10:08:26;3.37;;;1.67;;
4375;SDS011;2202;50.866;12.750;2022-10-15T10:10:57;8.37;;;2.90;;
4375;SDS011;2202;50.866;12.750;2022-10-15T10:13:26;5.90;;;5.03;;
4375;SDS011;2202;50.866;12.750;2022-10-15T10:15:56;7.30;;;4.90;;
4375;SDS011;2202;50.866;12.750;2022-10-15T10:18:28;4.00;;;3.60;;
4375;SDS011;2202;50.866;12.750;2022-10-15T10:20:58;4.10;;;2.73;;
4375;SDS011;2202;50.866;12.750;2022-10-15T10:23:29;4.60;;;3.30;;
4375;SDS011;2202;50.866;12.750;2022-10-15T10:25:59;4.60;;;2.60;;
4375;SDS011;2202;50.866;12.750;2022-10-15T10:28:29;3.73;;;2.67;;
4375;SDS011;2202;50.866;12.750;2022-10-15T10:30:59;2.60;;;2.00;;
4375;SDS011;2202;50.866;12.750;2022-10-15T10:33:30;4.10;;;1.83;;
4375;SDS011;2202;50.866;12.750;2022-10-15T10:36:01;2.40;;;1.70;;
4375;SDS011;2202;50.866;12.750;2022-10-15T10:38:29;2.83;;;1.87;;
4375;SDS011;2202;50.866;12.750;2022-10-15T10:40:58;2.63;;;2.07;;
4375;SDS011;2202;50.866;12.750;2022-10-15T10:43:31;3.10;;;2.57;;
4375;SDS011;2202;50.866;12.750;2022-10-15T10:46:00;3.30;;;2.53;;
4375;SDS011;2202;50.866;12.750;2022-10-15T10:48:32;3.10;;;2.13;;
4375;SDS011;2202;50.866;12.750;2022-10-15T10:51:06;2.90;;;1.87;;
4375;SDS011;2202;50.866;12.750;2022-10-15T10:53:38;2.93;;;2.13;;
4375;SDS011;2202;50.866;12.750;2022-10-15T10:56:12;2.70;;;1.83;;
4375;SDS011;2202;50.866;12.750;2022-10-15T10:58:40;2.70;;;1.80;;
4375;SDS011;2202;50.866;12.750;2022-10-15T11:01:08;3.70;;;1.87;;
4375;SDS011;2202;50.866;12.750;2022-10-15T11:03:37;2.50;;;1.47;;
4375;SDS011;2202;50.866;12.750;2022-10-15T11:06:20;4.50;;;1.30;;
4375;SDS011;2202;50.866;12.750;2022-10-15T11:09:02;2.30;;;1.30;;
4375;SDS011;2202;50.866;12.750;2022-10-15T11:11:40;3.30;;;2.13;;
4375;SDS011;2202;50.866;12.750;2022-10-15T11:14:21;3.80;;;1.70;;
4375;SDS011;2202;50.866;12.750;2022-10-15T11:16:56;3.50;;;1.50;;
4375;SDS011;2202;50.866;12.750;2022-10-15T11:19:29;5.10;;;2.10;;
4375;SDS011;2202;50.866;12.750;2022-10-15T11:22:10;3.87;;;2.00;;
4375;SDS011;2202;50.866;12.750;2022-10-15T11:24:48;2.73;;;1.93;;
4375;SDS011;2202;50.866;12.750;2022-10-15T11:27:25;2.43;;;1.57;;
4375;SDS011;2202;50.866;12.750;2022-10-15T11:30:08;3.73;;;1.80;;
4375;SDS011;2202;50.866;12.750;2022-10-15T11:32:51;3.10;;;1.60;;
4375;SDS011;2202;50.866;12.750;2022-10-15T11:35:30;2.83;;;1.90;;
4375;SDS011;2202;50.866;12.750;2022-10-15T11:38:11;3.10;;;1.80;;
4375;SDS011;2202;50.866;12.750;2022-10-15T11:40:45;3.00;;;2.30;;
4375;SDS011;2202;50.866;12.750;2022-10-15T11:43:30;4.07;;;2.90;;
4375;SDS011;2202;50.866;12.750;2022-10-15T11:46:08;5.00;;;4.50;;
4375;SDS011;2202;50.866;12.750;2022-10-15T11:48:46;4.10;;;3.30;;
4375;SDS011;2202;50.866;12.750;2022-10-15T11:51:23;3.90;;;3.10;;
4375;SDS011;2202;50.866;12.750;2022-10-15T11:54:15;4.30;;;2.87;;
4375;SDS011;2202;50.866;12.750;2022-10-15T11:56:49;3.00;;;2.13;;
4375;SDS011;2202;50.866;12.750;2022-10-15T11:59:23;5.73;;;4.30;;
4375;SDS011;2202;50.866;12.750;2022-10-15T12:01:59;3.63;;;1.80;;
4375;SDS011;2202;50.866;12.750;2022-10-15T12:04:32;8.00;;;5.90;;
4375;SDS011;2202;50.866;12.750;2022-10-15T12:07:04;4.73;;;3.17;;
4375;SDS011;2202;50.866;12.750;2022-10-15T12:09:38;2.67;;;1.20;;
4375;SDS011;2202;50.866;12.750;2022-10-15T12:12:10;3.63;;;1.80;;
4375;SDS011;2202;50.866;12.750;2022-10-15T12:14:45;4.80;;;1.87;;
4375;SDS011;2202;50.866;12.750;2022-10-15T12:17:20;4.33;;;1.93;;
4375;SDS011;2202;50.866;12.750;2022-10-15T12:19:49;3.80;;;1.90;;
4375;SDS011;2202;50.866;12.750;2022-10-15T12:22:30;6.10;;;3.00;;
4375;SDS011;2202;50.866;12.750;2022-10-15T12:25:00;5.80;;;3.10;;
4375;SDS011;2202;50.866;12.750;2022-10-15T12:27:28;5.93;;;2.63;;
4375;SDS011;2202;50.866;12.750;2022-10-15T12:32:48;4.33;;;2.30;;
4375;SDS011;2202;50.866;12.750;2022-10-15T12:35:20;4.60;;;2.60;;
4375;SDS011;2202;50.866;12.750;2022-10-15T12:38:07;4.67;;;2.47;;
4375;SDS011;2202;50.866;12.750;2022-10-15T12:40:38;3.47;;;1.67;;
4375;SDS011;2202;50.866;12.750;2022-10-15T12:43:11;3.93;;;1.67;;
4375;SDS011;2202;50.866;12.750;2022-10-15T12:45:40;4.47;;;1.60;;
4375;SDS011;2202;50.866;12.750;2022-10-15T12:48:19;4.67;;;1.50;;
4375;SDS011;2202;50.866;12.750;2022-10-15T13:03:16;5.50;;;1.00;;
4375;SDS011;2202;50.866;12.750;2022-10-15T13:05:49;3.97;;;1.10;;
4375;SDS011;2202;50.866;12.750;2022-10-15T13:08:19;6.00;;;1.20;;
4375;SDS011;2202;50.866;12.750;2022-10-15T13:10:48;5.50;;;1.17;;
4375;SDS011;2202;50.866;12.750;2022-10-15T13:13:18;5.23;;;1.20;;
4375;SDS011;2202;50.866;12.750;2022-10-15T13:15:54;7.70;;;3.33;;
4375;SDS011;2202;50.866;12.750;2022-10-15T13:18:24;5.20;;;1.10;;
4375;SDS011;2202;50.866;12.750;2022-10-15T13:20:53;5.30;;;1.00;;
4375;SDS011;2202;50.866;12.750;2022-10-15T13:23:22;4.97;;;1.10;;
4375;SDS011;2202;50.866;12.750;2022-10-15T13:25:52;9.10;;;1.30;;
4375;SDS011;2202;50.866;12.750;2022-10-15T13:28:35;7.50;;;1.40;;
4375;SDS011;2202;50.866;12.750;2022-10-15T13:31:07;7.40;;;1.83;;
4375;SDS011;2202;50.866;12.750;2022-10-15T13:33:40;5.57;;;1.20;;
4375;SDS011;2202;50.866;12.750;2022-10-15T13:36:12;7.80;;;1.60;;
4375;SDS011;2202;50.866;12.750;2022-10-15T13:38:47;6.33;;;1.43;;
4375;SDS011;2202;50.866;12.750;2022-10-15T13:41:21;6.30;;;1.57;;
4375;SDS011;2202;50.866;12.750;2022-10-15T13:43:53;4.80;;;1.77;;
4375;SDS011;2202;50.866;12.750;2022-10-15T13:46:24;6.70;;;1.90;;
4375;SDS011;2202;50.866;12.750;2022-10-15T13:48:56;5.57;;;2.07;;
4375;SDS011;2202;50.866;12.750;2022-10-15T13:51:26;5.00;;;1.40;;
4375;SDS011;2202;50.866;12.750;2022-10-15T13:53:57;5.47;;;1.43;;
4375;SDS011;2202;50.866;12.750;2022-10-15T13:56:26;5.60;;;1.30;;
4375;SDS011;2202;50.866;12.750;2022-10-15T13:58:54;6.77;;;1.80;;
4375;SDS011;2202;50.866;12.750;2022-10-15T14:01:22;6.50;;;1.50;;
4375;SDS011;2202;50.866;12.750;2022-10-15T14:03:52;5.80;;;1.40;;
4375;SDS011;2202;50.866;12.750;2022-10-15T14:06:21;6.03;;;1.30;;
4375;SDS011;2202;50.866;12.750;2022-10-15T14:08:49;6.60;;;1.60;;
4375;SDS011;2202;50.866;12.750;2022-10-15T14:11:18;5.80;;;1.30;;
4375;SDS011;2202;50.866;12.750;2022-10-15T14:13:45;6.73;;;1.70;;
4375;SDS011;2202;50.866;12.750;2022-10-15T14:16:14;6.60;;;1.60;;
4375;SDS011;2202;50.866;12.750;2022-10-15T14:18:47;6.83;;;1.87;;
4375;SDS011;2202;50.866;12.750;2022-10-15T14:21:16;5.90;;;1.53;;
4375;SDS011;2202;50.866;12.750;2022-10-15T14:23:45;6.10;;;1.67;;
4375;SDS011;2202;50.866;12.750;2022-10-15T14:26:13;6.10;;;1.70;;
4375;SDS011;2202;50.866;12.750;2022-10-15T14:28:41;6.00;;;1.57;;
4375;SDS011;2202;50.866;12.750;2022-10-15T14:31:23;7.20;;;2.07;;
4375;SDS011;2202;50.866;12.750;2022-10-15T14:33:57;7.47;;;2.07;;
4375;SDS011;2202;50.866;12.750;2022-10-15T14:36:25;6.37;;;1.80;;
4375;SDS011;2202;50.866;12.750;2022-10-15T14:38:53;11.30;;;2.90;;
4375;SDS011;2202;50.866;12.750;2022-10-15T14:41:24;7.47;;;1.90;;
4375;SDS011;2202;50.866;12.750;2022-10-15T14:44:00;6.80;;;2.00;;
4375;SDS011;2202;50.866;12.750;2022-10-15T14:46:37;7.27;;;2.77;;
4375;SDS011;2202;50.866;12.750;2022-10-15T14:49:15;8.17;;;3.33;;
4375;SDS011;2202;50.866;12.750;2022-10-15T14:51:50;9.93;;;4.20;;
4375;SDS011;2202;50.866;12.750;2022-10-15T14:54:23;6.87;;;2.13;;
4375;SDS011;2202;50.866;12.750;2022-10-15T14:56:55;6.23;;;1.80;;
4375;SDS011;2202;50.866;12.750;2022-10-15T14:59:23;7.37;;;2.10;;
4375;SDS011;2202;50.866;12.750;2022-10-15T15:01:55;6.07;;;1.53;;
4375;SDS011;2202;50.866;12.750;2022-10-15T15:04:32;6.30;;;1.53;;
4375;SDS011;2202;50.866;12.750;2022-10-15T15:07:01;6.40;;;2.20;;
4375;SDS011;2202;50.866;12.750;2022-10-15T15:09:27;8.60;;;1.60;;
4375;SDS011;2202;50.866;12.750;2022-10-15T15:11:54;6.63;;;1.93;;
4375;SDS011;2202;50.866;12.750;2022-10-15T15:14:22;7.30;;;2.07;;
4375;SDS011;2202;50.866;12.750;2022-10-15T15:16:50;6.10;;;2.10;;
4375;SDS011;2202;50.866;12.750;2022-10-15T15:19:17;7.37;;;2.10;;
4375;SDS011;2202;50.866;12.750;2022-10-15T15:21:45;5.83;;;2.10;;
4375;SDS011;2202;50.866;12.750;2022-10-15T15:24:12;5.90;;;2.30;;
4375;SDS011;2202;50.866;12.750;2022-10-15T15:26:39;6.40;;;2.43;;
4375;SDS011;2202;50.866;12.750;2022-10-15T15:29:08;5.00;;;1.87;;
4375;SDS011;2202;50.866;12.750;2022-10-15T15:31:37;5.03;;;2.20;;
4375;SDS011;2202;50.866;12.750;2022-10-15T15:34:04;5.30;;;1.90;;
4375;SDS011;2202;50.866;12.750;2022-10-15T15:36:31;7.97;;;1.90;;